Time;durP1;ratioP1;P1;durP2;ratioP2;P2;SDS_P1;SDS_P2;PMS_P1;PMS_P2;Temp;Humidity;BMP_temperature;BMP_pressure;BME280_temperature;BME280_humidity;BME280_pressure;Samples;Min_cycle;Max_cycle;Signal;HPM_P1;HPM_P2
2022/11/19 00:01:25;;;;;;;179.38;52.65;;;;;;;9.74;100.00;98332.53;5051291;28;20056;-71
2022/11/19 00:03:50;;;;;;;176.55;54.35;;;;;;;9.89;100.00;98346.88;5053113;28;20036;-71
2022/11/19 00:06:24;;;;;;;171.77;53.65;;;;;;;9.83;100.00;98324.81;5053800;28;20416;-71
2022/11/19 00:08:51;;;;;;;191.57;53.33;;;;;;;9.73;100.00;98330.91;5049833;28;20105;-71
2022/11/19 00:14:04;;;;;;;215.38;57.47;;;;;;;9.64;100.00;98319.09;5055516;28;20098;-72
2022/11/19 00:16:29;;;;;;;204.50;61.50;;;;;;;9.76;100.00;98338.56;5054734;28;20438;-71
2022/11/19 00:18:55;;;;;;;208.70;56.05;;;;;;;9.80;100.00;98344.25;5053515;28;20036;-71
2022/11/19 00:21:20;;;;;;;225.85;58.80;;;;;;;9.58;100.00;98338.06;5053994;28;20079;-72
2022/11/19 00:23:46;;;;;;;212.00;57.35;;;;;;;9.59;100.00;98352.81;5029410;28;20037;-72
2022/11/19 00:26:13;;;;;;;191.48;55.05;;;;;;;9.58;100.00;98337.25;5048232;28;20037;-71
2022/11/19 00:28:40;;;;;;;187.48;54.63;;;;;;;9.64;100.00;98333.84;5034982;28;20546;-72
2022/11/19 00:31:11;;;;;;;174.63;51.47;;;;;;;9.79;100.00;98346.22;5054552;28;20029;-71
2022/11/19 00:33:38;;;;;;;181.45;52.63;;;;;;;9.86;100.00;98344.81;5036948;28;20462;-71
2022/11/19 00:36:06;;;;;;;166.60;49.55;;;;;;;10.00;100.00;98352.72;5035683;28;20033;-72
2022/11/19 00:38:32;;;;;;;161.75;49.50;;;;;;;9.91;100.00;98356.53;5054713;28;20491;-72
2022/11/19 00:40:57;;;;;;;173.35;53.30;;;;;;;9.95;100.00;98371.38;5054061;28;20033;-69
2022/11/19 00:46:07;;;;;;;145.70;51.58;;;;;;;10.04;100.00;98367.63;5034532;28;20065;-72
2022/11/19 00:48:33;;;;;;;140.32;46.80;;;;;;;10.10;100.00;98368.97;5034430;28;20021;-72
2022/11/19 00:50:58;;;;;;;128.98;43.28;;;;;;;10.14;100.00;98361.50;5032475;28;20483;-71
2022/11/19 00:53:24;;;;;;;118.22;43.88;;;;;;;10.09;100.00;98375.72;5053640;28;20029;-71
2022/11/19 00:55:49;;;;;;;136.63;46.33;;;;;;;10.01;100.00;98399.06;5054268;28;20039;-72
2022/11/19 00:58:15;;;;;;;122.18;44.28;;;;;;;10.14;100.00;98391.44;5062855;28;20377;-72
2022/11/19 01:00:40;;;;;;;124.28;47.53;;;;;;;10.07;100.00;98387.25;5060911;28;20037;-72
2022/11/19 01:03:06;;;;;;;124.32;42.67;;;;;;;10.05;100.00;98388.81;5054128;28;20025;-71
2022/11/19 01:05:31;;;;;;;113.85;41.92;;;;;;;10.15;100.00;98390.25;5051973;28;20037;-71
2022/11/19 01:07:57;;;;;;;110.25;41.38;;;;;;;10.26;100.00;98402.53;5054203;28;20091;-71
2022/11/19 01:10:22;;;;;;;126.65;43.85;;;;;;;10.28;100.00;98404.97;5035981;28;20032;-72
2022/11/19 01:15:32;;;;;;;100.65;39.35;;;;;;;10.27;100.00;98426.50;5052351;28;20135;-72
2022/11/19 01:17:57;;;;;;;108.07;40.38;;;;;;;10.25;100.00;98434.44;5053162;28;20499;-71
2022/11/19 01:20:23;;;;;;;104.60;41.28;;;;;;;10.33;100.00;98441.03;5034548;28;20033;-71
2022/11/19 01:22:48;;;;;;;104.80;40.55;;;;;;;10.30;100.00;98434.16;5053650;28;20032;-71
2022/11/19 01:25:14;;;;;;;93.13;40.78;;;;;;;10.01;100.00;98446.53;5053689;28;20087;-71
2022/11/19 01:27:40;;;;;;;100.15;45.58;;;;;;;9.77;100.00;98456.66;5053011;28;20063;-72
2022/11/19 01:30:06;;;;;;;97.93;43.00;;;;;;;9.68;100.00;98451.22;5034998;28;20468;-71
2022/11/19 01:32:32;;;;;;;101.57;41.25;;;;;;;9.87;100.00;98447.78;5035714;28;20396;-72
2022/11/19 01:34:57;;;;;;;90.80;40.25;;;;;;;9.93;100.00;98448.31;5049699;28;20040;-72
2022/11/19 01:37:23;;;;;;;100.63;43.10;;;;;;;10.03;100.00;98447.03;5053252;28;20411;-71
2022/11/19 01:39:48;;;;;;;89.75;41.33;;;;;;;9.96;100.00;98465.19;5035399;28;20040;-72
2022/11/19 01:42:48;;;;;;;87.07;40.35;;;;;;;9.99;100.00;98472.06;5053073;28;20083;-72
2022/11/19 01:45:20;;;;;;;94.18;41.03;;;;;;;10.01;100.00;98471.69;5051806;28;20112;-72
2022/11/19 01:47:46;;;;;;;90.35;42.47;;;;;;;9.72;100.00;98471.69;5053414;28;20020;-72
2022/11/19 01:50:12;;;;;;;110.15;43.53;;;;;;;9.63;100.00;98491.34;5051598;28;20130;-72
2022/11/19 01:52:38;;;;;;;100.65;40.65;;;;;;;9.29;100.00;98482.38;5035160;28;20098;-72
2022/11/19 01:55:06;;;;;;;124.43;47.70;;;;;;;9.08;100.00;98491.69;5053285;28;20032;-72
2022/11/19 01:57:32;;;;;;;123.97;49.45;;;;;;;8.97;100.00;98507.25;5052574;28;20121;-71
2022/11/19 01:59:57;;;;;;;116.68;46.50;;;;;;;8.92;100.00;98513.03;5035193;28;20501;-72
2022/11/19 02:02:24;;;;;;;133.55;50.50;;;;;;;8.90;100.00;98510.63;5034060;28;20064;-71
2022/11/19 02:04:51;;;;;;;120.40;46.42;;;;;;;8.92;100.00;98502.72;5052953;28;20032;-72
2022/11/19 02:07:23;;;;;;;134.82;50.33;;;;;;;8.80;100.00;98511.88;5053026;28;20104;-72
2022/11/19 02:09:49;;;;;;;117.63;48.28;;;;;;;8.76;100.00;98515.72;5032869;28;20404;-70
2022/11/19 02:12:29;;;;;;;126.05;47.65;;;;;;;8.70;100.00;98509.56;5051051;28;20044;-71
2022/11/19 02:15:28;;;;;;;128.45;49.22;;;;;;;8.69;100.00;98516.28;5033537;28;20029;-71
2022/11/19 02:18:20;;;;;;;135.35;51.90;;;;;;;8.66;100.00;98497.44;5031652;28;20044;-71
2022/11/19 02:21:09;;;;;;;127.82;50.45;;;;;;;8.89;100.00;98497.00;5037505;28;20044;-72
2022/11/19 02:23:59;;;;;;;125.40;49.35;;;;;;;8.84;100.00;98509.19;5052579;28;20108;-71
2022/11/19 02:26:33;;;;;;;124.63;46.78;;;;;;;8.76;100.00;98502.56;5049812;28;20025;-72
2022/11/19 02:29:25;;;;;;;121.82;46.25;;;;;;;8.85;100.00;98497.72;5045994;28;20056;-71
2022/11/19 02:31:58;;;;;;;128.15;47.38;;;;;;;8.87;100.00;98494.59;5007705;28;20123;-71
2022/11/19 02:34:29;;;;;;;113.65;46.72;;;;;;;8.91;100.00;98497.47;5033086;28;20025;-72
2022/11/19 02:37:18;;;;;;;109.20;43.50;;;;;;;9.00;100.00;98503.75;5052347;28;20060;-72
2022/11/19 02:39:53;;;;;;;105.72;44.22;;;;;;;8.98;100.00;98503.28;5051904;28;20488;-72
2022/11/19 02:42:30;;;;;;;110.95;44.85;;;;;;;9.02;100.00;98500.63;5052227;28;20033;-71
2022/11/19 02:45:29;;;;;;;93.65;42.88;;;;;;;9.12;100.00;98497.38;5051922;28;20035;-71
2022/11/19 02:48:04;;;;;;;99.88;43.85;;;;;;;9.12;100.00;98491.81;5010221;28;20033;-71
2022/11/19 02:50:42;;;;;;;101.47;43.97;;;;;;;9.29;100.00;98493.53;5051387;28;20063;-71
2022/11/19 02:53:08;;;;;;;92.90;39.72;;;;;;;9.32;100.00;98490.03;5052029;28;20098;-72
2022/11/19 02:55:36;;;;;;;82.68;38.70;;;;;;;9.45;100.00;98490.03;5051947;28;20056;-71
2022/11/19 03:04:28;;;;;;;78.40;37.63;;;;;;;9.46;100.00;98497.22;5034130;28;20035;-71
2022/11/19 03:06:33;;;;;;;66.13;33.42;;;;;;;9.68;100.00;98498.69;5051229;28;20035;-71
2022/11/19 03:08:59;;;;;;;67.30;34.88;;;;;;;9.72;100.00;98496.81;5033125;28;20018;-71
2022/11/19 03:11:29;;;;;;;64.50;34.63;;;;;;;9.86;100.00;98507.59;5051238;28;20052;-71
2022/11/19 03:17:29;;;;;;;62.10;30.38;;;;;;;10.01;100.00;98525.59;4967563;28;19977;-72
2022/11/19 03:20:28;;;;;;;55.42;28.08;;;;;;;10.14;100.00;98537.56;4970999;28;20034;-72
2022/11/19 03:23:08;;;;;;;55.58;28.70;;;;;;;10.25;100.00;98523.88;5040077;28;20484;-72
2022/11/19 03:25:40;;;;;;;46.88;26.83;;;;;;;10.28;100.00;98539.13;5051347;28;20496;-72
2022/11/19 03:28:12;;;;;;;54.70;27.77;;;;;;;10.27;100.00;98541.09;5051350;28;20366;-72
2022/11/19 03:30:41;;;;;;;52.75;28.42;;;;;;;10.37;100.00;98545.34;5032605;28;20400;-72
2022/11/19 03:33:12;;;;;;;45.95;27.27;;;;;;;10.40;100.00;98553.03;5050335;28;20029;-72
2022/11/19 03:35:52;;;;;;;47.67;28.13;;;;;;;10.48;100.00;98540.09;5033613;28;20017;-72
2022/11/19 03:38:26;;;;;;;43.75;25.35;;;;;;;10.50;100.00;98546.97;5033725;28;20035;-72
2022/11/19 03:40:55;;;;;;;47.55;25.77;;;;;;;10.47;100.00;98560.84;5054381;28;20028;-71
2022/11/19 03:43:25;;;;;;;44.53;25.00;;;;;;;10.51;100.00;98584.94;5055597;28;20056;-72
2022/11/19 03:45:55;;;;;;;38.67;23.70;;;;;;;10.52;100.00;98580.16;5052389;28;20048;-71
2022/11/19 03:48:22;;;;;;;39.83;22.87;;;;;;;10.49;100.00;98587.25;5054896;28;20462;-71
2022/11/19 03:50:53;;;;;;;46.03;23.85;;;;;;;10.52;100.00;98589.38;5055003;28;20072;-71
2022/11/19 03:53:19;;;;;;;39.35;22.77;;;;;;;10.57;100.00;98590.28;5053488;28;20021;-71
2022/11/19 03:55:59;;;;;;;41.28;21.52;;;;;;;10.58;100.00;98595.53;5054192;28;20032;-71
2022/11/19 03:58:26;;;;;;;40.42;24.05;;;;;;;10.51;100.00;98579.34;5050590;28;20029;-71
2022/11/19 04:00:52;;;;;;;36.00;21.90;;;;;;;10.58;100.00;98575.13;5054278;28;20086;-72
2022/11/19 04:03:18;;;;;;;38.78;23.52;;;;;;;10.48;100.00;98574.44;5054183;28;20021;-72
2022/11/19 04:05:43;;;;;;;31.80;21.65;;;;;;;10.34;100.00;98569.25;5053043;28;20112;-71
2022/11/19 04:08:09;;;;;;;43.38;23.88;;;;;;;10.45;100.00;98585.56;5055176;28;20021;-72
2022/11/19 04:10:34;;;;;;;43.22;23.85;;;;;;;10.45;100.00;98577.97;5054691;28;20020;-73
2022/11/19 04:13:00;;;;;;;43.83;23.60;;;;;;;10.51;100.00;98593.34;5054434;28;20025;-71
2022/11/19 04:15:25;;;;;;;35.30;24.52;;;;;;;10.28;100.00;98593.03;5036337;28;20468;-72
2022/11/19 04:17:51;;;;;;;41.05;25.42;;;;;;;10.22;100.00;98600.06;5036886;28;20170;-72
2022/11/19 04:20:16;;;;;;;47.90;26.98;;;;;;;10.03;100.00;98603.47;5053314;28;20028;-72
2022/11/19 04:22:42;;;;;;;58.70;35.20;;;;;;;10.06;100.00;98603.56;5055110;28;20036;-72
2022/11/19 04:25:08;;;;;;;67.93;37.58;;;;;;;9.79;100.00;98614.31;5055017;28;20454;-72
2022/11/19 04:27:33;;;;;;;63.45;36.72;;;;;;;9.60;100.00;98617.72;5054614;28;20021;-72
2022/11/19 04:29:58;;;;;;;58.22;35.85;;;;;;;9.51;100.00;98611.44;5035897;28;20412;-71
2022/11/19 04:32:24;;;;;;;65.13;33.45;;;;;;;9.64;100.00;98626.22;5046918;28;20395;-71
2022/11/19 04:34:49;;;;;;;55.35;31.90;;;;;;;9.61;100.00;98622.13;5048394;28;20037;-72
2022/11/19 04:37:15;;;;;;;53.75;32.55;;;;;;;9.58;100.00;98617.25;5054689;28;20472;-72
2022/11/19 04:39:40;;;;;;;53.05;29.67;;;;;;;9.58;100.00;98617.25;5052344;28;20072;-72
2022/11/19 04:42:06;;;;;;;55.50;31.02;;;;;;;9.45;100.00;98622.00;5027867;28;20051;-72
2022/11/19 04:44:31;;;;;;;57.42;29.88;;;;;;;9.60;100.00;98647.63;5020951;28;20029;-72
2022/11/19 04:46:58;;;;;;;52.38;29.35;;;;;;;9.55;100.00;98651.47;5034340;28;20111;-72
2022/11/19 04:49:24;;;;;;;51.03;29.27;;;;;;;9.61;100.00;98661.22;5034306;28;20558;-71
2022/11/19 04:51:49;;;;;;;55.38;29.92;;;;;;;9.40;100.00;98650.97;5030557;28;20029;-72
2022/11/19 04:54:15;;;;;;;50.65;29.98;;;;;;;9.45;100.00;98657.50;5053811;28;20102;-71
2022/11/19 04:56:40;;;;;;;64.40;37.28;;;;;;;9.29;100.00;98658.19;5052353;28;20469;-71
2022/11/19 04:59:06;;;;;;;249.07;127.18;;;;;;;9.26;100.00;98667.22;5051662;28;20412;-74
2022/11/19 05:01:31;;;;;;;99.68;53.88;;;;;;;9.34;100.00;98671.91;5047536;28;20101;-73
2022/11/19 05:03:57;;;;;;;74.10;41.15;;;;;;;9.12;100.00;98690.69;5051261;28;20130;-72
2022/11/19 05:06:22;;;;;;;68.53;36.90;;;;;;;8.90;100.00;98705.00;5036249;28;20036;-76
2022/11/19 05:08:48;;;;;;;62.20;35.58;;;;;;;8.81;100.00;98707.88;5054164;28;20029;-73
2022/11/19 05:11:13;;;;;;;64.38;36.80;;;;;;;8.84;100.00;98699.66;5035391;28;20047;-69
2022/11/19 05:13:38;;;;;;;59.38;34.53;;;;;;;8.77;100.00;98701.38;5054312;28;20036;-69
2022/11/19 05:16:04;;;;;;;73.22;33.25;;;;;;;8.67;100.00;98705.38;5054129;28;20108;-70
2022/11/19 05:18:30;;;;;;;62.58;33.58;;;;;;;8.80;100.00;98709.84;5053810;28;20027;-70
2022/11/19 05:20:55;;;;;;;60.17;32.88;;;;;;;8.83;100.00;98702.78;5036065;28;20029;-74
2022/11/19 05:23:21;;;;;;;61.03;32.50;;;;;;;8.71;100.00;98711.91;5036430;28;20033;-73
2022/11/19 05:25:46;;;;;;;69.55;33.67;;;;;;;8.75;100.00;98725.97;5035003;28;20503;-71
2022/11/19 05:28:12;;;;;;;57.00;32.47;;;;;;;8.76;100.00;98725.63;5035742;28;20464;-73
2022/11/19 05:30:37;;;;;;;67.50;34.70;;;;;;;8.73;100.00;98723.53;5051238;28;20025;-68
2022/11/19 05:33:03;;;;;;;61.03;34.85;;;;;;;8.71;100.00;98740.59;5052712;28;20119;-71
2022/11/19 05:35:28;;;;;;;63.63;34.65;;;;;;;8.87;100.00;98741.97;5053889;28;20036;-73
2022/11/19 05:37:54;;;;;;;66.10;33.33;;;;;;;9.00;100.00;98743.63;5053542;28;20033;-73
2022/11/19 05:40:19;;;;;;;65.57;34.03;;;;;;;9.01;100.00;98736.91;5050425;28;20037;-76
2022/11/19 05:42:45;;;;;;;65.28;35.92;;;;;;;8.89;100.00;98748.84;5050299;28;20029;-74
2022/11/19 05:45:11;;;;;;;66.45;37.45;;;;;;;9.05;100.00;98749.03;5053192;28;20491;-73
2022/11/19 05:47:37;;;;;;;70.30;37.40;;;;;;;9.16;100.00;98756.94;5034829;28;20029;-68
2022/11/19 05:50:03;;;;;;;71.55;37.42;;;;;;;9.26;100.00;98762.09;5034642;28;20021;-69
2022/11/19 05:52:28;;;;;;;67.70;37.78;;;;;;;9.29;100.00;98780.97;5035614;28;20033;-73
2022/11/19 05:54:54;;;;;;;80.32;36.35;;;;;;;9.30;100.00;98788.19;5035831;28;20029;-70
2022/11/19 05:57:19;;;;;;;61.90;34.25;;;;;;;9.45;100.00;98788.69;5052945;28;20043;-71
2022/11/19 05:59:45;;;;;;;68.68;34.63;;;;;;;9.53;100.00;98805.34;5053020;28;20090;-71
2022/11/19 06:02:10;;;;;;;62.05;33.75;;;;;;;9.61;100.00;98812.00;5034453;28;20037;-68
2022/11/19 06:04:36;;;;;;;68.97;37.85;;;;;;;9.60;100.00;98804.78;5034530;28;20079;-63
2022/11/19 06:07:02;;;;;;;63.60;35.75;;;;;;;9.77;100.00;98816.91;5053075;28;20420;-68
2022/11/19 06:09:28;;;;;;;81.18;44.28;;;;;;;9.89;100.00;98808.56;5052992;28;20069;-72
2022/11/19 06:11:53;;;;;;;75.47;43.58;;;;;;;10.00;100.00;98805.31;5052513;28;20484;-69
2022/11/19 06:14:21;;;;;;;80.22;43.67;;;;;;;10.16;99.45;98813.84;5035266;28;20115;-67
2022/11/19 06:16:48;;;;;;;80.00;40.90;;;;;;;10.24;98.90;98808.13;5023867;28;20488;-68
2022/11/19 06:19:13;;;;;;;83.50;45.03;;;;;;;10.33;98.14;98807.19;5044642;28;20036;-69
2022/11/19 06:21:39;;;;;;;71.53;43.00;;;;;;;10.31;97.11;98820.72;5052191;28;20013;-70
2022/11/19 06:24:05;;;;;;;83.30;47.65;;;;;;;10.30;97.41;98836.66;5050577;28;20021;-70
2022/11/19 06:26:30;;;;;;;81.07;47.17;;;;;;;10.27;97.26;98833.75;5034615;28;20462;-68
2022/11/19 06:28:56;;;;;;;83.78;48.20;;;;;;;10.22;97.52;98843.19;5046040;28;20024;-68
2022/11/19 06:31:22;;;;;;;80.93;46.47;;;;;;;10.24;97.03;98850.03;5051210;28;20075;-68
2022/11/19 06:33:47;;;;;;;79.78;42.30;;;;;;;10.13;97.73;98848.06;5050655;28;20028;-69
2022/11/19 06:36:13;;;;;;;81.32;46.88;;;;;;;10.04;97.99;98851.78;5033536;28;20104;-67
2022/11/19 06:38:39;;;;;;;86.05;46.60;;;;;;;9.97;98.97;98849.56;5033014;28;20104;-68
2022/11/19 06:41:04;;;;;;;75.85;44.90;;;;;;;9.92;99.04;98863.75;5050624;28;20131;-68
2022/11/19 06:43:30;;;;;;;68.03;40.78;;;;;;;9.95;99.70;98868.63;5050325;28;20063;-67
2022/11/19 06:45:55;;;;;;;83.45;47.55;;;;;;;9.92;99.84;98863.75;5031633;28;20499;-66
2022/11/19 06:48:21;;;;;;;84.93;46.55;;;;;;;9.96;99.58;98859.09;5026221;28;20034;-67
2022/11/19 06:50:47;;;;;;;96.20;48.30;;;;;;;10.19;100.00;98869.84;5017448;28;20017;-69
2022/11/19 06:53:13;;;;;;;70.20;40.78;;;;;;;10.43;100.00;98873.03;5032640;28;20461;-72
2022/11/19 06:55:38;;;;;;;82.18;44.42;;;;;;;10.30;100.00;98875.00;5050039;28;20024;-70
2022/11/19 06:58:05;;;;;;;82.63;43.70;;;;;;;10.49;99.75;98877.25;5049892;28;20063;-70
2022/11/19 07:00:32;;;;;;;71.18;39.67;;;;;;;10.61;99.03;98873.63;5049355;28;20036;-69
2022/11/19 07:02:58;;;;;;;72.55;39.55;;;;;;;10.77;98.08;98877.34;5031457;28;20025;-70
2022/11/19 07:05:23;;;;;;;66.95;37.33;;;;;;;10.45;99.24;98877.13;5049068;28;20510;-70
2022/11/19 07:07:49;;;;;;;77.22;40.80;;;;;;;10.31;100.00;98883.00;5048639;28;20028;-71
2022/11/19 07:10:15;;;;;;;79.18;38.95;;;;;;;10.25;100.00;98881.63;5048983;28;20013;-69
2022/11/19 07:12:41;;;;;;;96.05;41.45;;;;;;;10.38;100.00;98893.66;5025338;28;20108;-70
2022/11/19 07:15:07;;;;;;;79.88;41.38;;;;;;;10.49;100.00;98878.03;5045582;28;20124;-70
2022/11/19 07:17:33;;;;;;;90.10;44.35;;;;;;;10.54;100.00;98877.00;5020641;28;20044;-71
2022/11/19 07:19:58;;;;;;;91.72;46.60;;;;;;;10.76;100.00;98880.50;5026217;28;20044;-71
2022/11/19 07:22:24;;;;;;;90.38;45.72;;;;;;;10.75;100.00;98879.69;5028099;28;20059;-71
2022/11/19 07:24:49;;;;;;;105.20;49.22;;;;;;;10.72;100.00;98874.78;5046587;28;20028;-70
2022/11/19 07:27:15;;;;;;;92.30;45.35;;;;;;;10.64;100.00;98884.13;5019641;28;20033;-75
2022/11/19 07:29:41;;;;;;;100.35;48.33;;;;;;;10.65;100.00;98882.97;5030567;28;20033;-72
2022/11/19 07:32:06;;;;;;;106.15;47.17;;;;;;;10.61;100.00;98890.41;5036599;28;20033;-73
2022/11/19 07:34:32;;;;;;;97.05;48.33;;;;;;;10.69;100.00;98897.88;5038519;28;20039;-69
2022/11/19 07:36:57;;;;;;;97.55;46.03;;;;;;;10.86;100.00;98893.19;5042989;28;20025;-69
2022/11/19 07:39:22;;;;;;;99.95;47.80;;;;;;;10.91;100.00;98898.56;5041193;28;20056;-69
2022/11/19 07:44:32;;;;;;;110.28;50.67;;;;;;;10.75;100.00;98899.28;5049815;28;20039;-73
2022/11/19 07:46:58;;;;;;;96.80;47.17;;;;;;;11.04;100.00;98902.97;5033020;28;20044;-69
2022/11/19 07:49:26;;;;;;;95.32;46.47;;;;;;;11.18;100.00;98907.38;5032037;28;20017;-69
2022/11/19 07:51:53;;;;;;;94.88;46.67;;;;;;;11.24;100.00;98908.78;5047990;28;20024;-69
2022/11/19 07:54:18;;;;;;;88.40;46.28;;;;;;;11.32;100.00;98916.19;5024556;28;20451;-69
2022/11/19 07:56:44;;;;;;;81.47;43.25;;;;;;;11.58;100.00;98911.34;5044556;28;20036;-69
2022/11/19 07:59:10;;;;;;;80.43;41.28;;;;;;;11.38;100.00;98909.19;5030168;28;20462;-70
2022/11/19 08:01:36;;;;;;;89.20;42.13;;;;;;;11.51;100.00;98909.16;5042617;28;20048;-69
2022/11/19 08:04:04;;;;;;;73.88;37.45;;;;;;;11.90;100.00;98911.47;5044315;28;20033;-69
2022/11/19 08:06:32;;;;;;;72.28;39.50;;;;;;;11.92;99.79;98906.31;5029649;28;20565;-69
2022/11/19 08:08:57;;;;;;;80.43;40.28;;;;;;;11.96;100.00;98912.03;5023298;28;20036;-69
2022/11/19 08:11:23;;;;;;;71.57;41.03;;;;;;;12.27;99.22;98927.28;5038607;28;20036;-70
2022/11/19 08:13:49;;;;;;;69.50;37.85;;;;;;;12.13;98.80;98922.13;5044021;28;20055;-71
2022/11/19 08:18:11;;;;;;;69.60;38.33;;;;;;;12.02;98.67;98927.44;5049238;28;20484;-69
2022/11/19 08:19:09;;;;;;;74.72;42.45;;;;;;;11.86;100.00;98928.19;5049352;28;20033;-71
2022/11/19 08:21:38;;;;;;;70.00;36.75;;;;;;;12.23;100.00;98938.41;5042435;28;20021;-68
2022/11/19 08:24:03;;;;;;;70.45;37.80;;;;;;;12.43;99.15;98939.34;5048630;28;20104;-71
2022/11/19 08:26:29;;;;;;;71.88;37.70;;;;;;;12.52;98.53;98943.94;5050909;28;20033;-71
2022/11/19 08:28:54;;;;;;;74.85;37.28;;;;;;;12.87;97.59;98946.03;5022465;28;20036;-69
2022/11/19 08:31:20;;;;;;;72.28;36.72;;;;;;;12.94;96.22;98932.19;5052887;28;20036;-69
2022/11/19 08:33:46;;;;;;;69.28;34.90;;;;;;;13.17;96.81;98951.16;5035233;28;20036;-69
2022/11/19 08:36:11;;;;;;;60.92;35.28;;;;;;;13.55;94.23;98955.25;5054533;28;20032;-72
2022/11/19 08:38:37;;;;;;;58.67;33.97;;;;;;;13.57;92.40;98950.09;5052080;28;20100;-72
2022/11/19 08:44:02;;;;;;;47.75;27.70;;;;;;;13.37;90.10;98959.63;5054318;28;20087;-70
2022/11/19 08:46:28;;;;;;;50.45;28.75;;;;;;;13.36;90.65;98958.00;5053884;28;20107;-74
2022/11/19 08:48:53;;;;;;;56.30;31.58;;;;;;;13.26;91.99;98965.81;5051631;28;20484;-70
2022/11/19 08:51:19;;;;;;;52.00;29.60;;;;;;;13.20;91.27;98964.47;5054138;28;20025;-69
2022/11/19 08:53:44;;;;;;;54.38;30.50;;;;;;;13.06;92.01;98976.16;5052034;28;20061;-69
2022/11/19 08:56:10;;;;;;;59.50;32.15;;;;;;;13.13;91.77;98972.72;5029785;28;20040;-70
2022/11/19 08:58:36;;;;;;;60.05;30.67;;;;;;;13.14;91.99;98977.97;5056246;28;20029;-70
2022/11/19 09:01:10;;;;;;;55.35;29.70;;;;;;;13.27;91.06;98973.06;5049556;28;20029;-70
2022/11/19 09:03:35;;;;;;;54.78;31.95;;;;;;;13.25;90.75;98963.38;5045948;28;20064;-70
2022/11/19 09:06:00;;;;;;;49.88;28.67;;;;;;;13.37;89.14;98973.66;5049216;28;20486;-69
2022/11/19 09:08:26;;;;;;;49.25;28.70;;;;;;;13.44;89.23;98968.25;5044742;28;20032;-69
2022/11/19 09:10:51;;;;;;;50.17;29.98;;;;;;;13.45;88.51;98978.31;5021720;28;20030;-69
2022/11/19 09:13:17;;;;;;;54.10;30.10;;;;;;;13.43;87.99;98978.63;5024922;28;20086;-70
2022/11/19 09:15:42;;;;;;;45.90;27.23;;;;;;;13.51;88.18;98961.97;5026218;28;20021;-70
2022/11/19 09:18:08;;;;;;;50.95;25.45;;;;;;;13.58;88.71;98960.13;5048247;28;20029;-69
2022/11/19 09:20:34;;;;;;;49.60;27.92;;;;;;;13.73;89.42;98957.63;5032742;28;20029;-70
2022/11/19 09:23:00;;;;;;;53.92;29.08;;;;;;;13.72;91.34;98951.22;5026952;28;20083;-69
2022/11/19 09:25:25;;;;;;;48.85;28.30;;;;;;;13.86;90.71;98947.88;5038898;28;20032;-70
2022/11/19 09:27:51;;;;;;;41.97;26.70;;;;;;;14.08;89.65;98948.31;5042350;28;20029;-69
2022/11/19 09:30:16;;;;;;;46.75;28.88;;;;;;;14.57;87.59;98934.72;5040487;28;20503;-69
2022/11/19 09:32:42;;;;;;;42.33;26.48;;;;;;;14.79;85.04;98932.31;5048981;28;20024;-69
2022/11/19 09:35:07;;;;;;;53.72;29.40;;;;;;;14.78;85.37;98936.31;5045632;28;20029;-69
2022/11/19 09:37:34;;;;;;;35.80;22.13;;;;;;;14.95;82.47;98934.97;5043510;28;20060;-69
2022/11/19 09:40:00;;;;;;;35.08;22.38;;;;;;;14.96;83.10;98928.16;5051241;28;20036;-69
2022/11/19 09:42:30;;;;;;;43.33;22.73;;;;;;;14.97;83.50;98913.72;5050764;28;20466;-69
2022/11/19 09:45:17;;;;;;;41.67;25.15;;;;;;;15.25;82.20;98918.13;5041111;28;20104;-69
2022/11/19 09:48:47;;;;;;;36.55;24.17;;;;;;;15.51;80.86;98919.28;5042703;28;20105;-70
2022/11/19 09:51:15;;;;;;;38.33;23.42;;;;;;;15.57;78.88;98926.25;4963462;28;20625;-70
2022/11/19 09:53:53;;;;;;;39.45;24.23;;;;;;;15.60;79.31;98912.56;5028940;28;20037;-69
2022/11/19 09:56:28;;;;;;;44.40;27.10;;;;;;;15.73;77.66;98903.47;5045970;28;20505;-70
2022/11/19 09:58:58;;;;;;;40.15;26.42;;;;;;;15.80;78.20;98908.38;5044169;28;20399;-70
2022/11/19 10:01:46;;;;;;;80.13;53.13;;;;;;;15.72;76.98;98907.47;5052224;28;20539;-70
2022/11/19 10:04:12;;;;;;;60.22;36.30;;;;;;;15.95;76.51;98903.75;5049278;28;20107;-69
2022/11/19 10:07:10;;;;;;;43.17;28.85;;;;;;;16.10;76.39;98901.91;5027551;28;20142;-69
2022/11/19 10:09:59;;;;;;;47.15;28.20;;;;;;;16.07;78.34;98893.41;5052185;28;20091;-69
2022/11/19 10:13:10;;;;;;;46.80;28.90;;;;;;;16.14;78.07;98904.78;5052676;28;20028;-69
2022/11/19 10:16:02;;;;;;;44.88;27.63;;;;;;;15.77;77.41;98911.16;5052626;28;20024;-69
2022/11/19 10:18:48;;;;;;;46.20;27.90;;;;;;;16.08;76.68;98907.13;5052334;28;20056;-69
2022/11/19 10:21:32;;;;;;;39.25;24.30;;;;;;;16.07;76.37;98899.88;5052426;28;20555;-69
2022/11/19 10:24:33;;;;;;;40.90;23.70;;;;;;;16.31;74.61;98913.78;5023133;28;20476;-69
2022/11/19 10:27:01;;;;;;;44.42;27.52;;;;;;;16.41;73.81;98908.28;5034956;28;20593;-68
2022/11/19 10:29:31;;;;;;;52.08;31.48;;;;;;;16.62;73.48;98901.19;5049285;28;20081;-68
2022/11/19 10:32:22;;;;;;;35.72;23.13;;;;;;;16.86;70.50;98907.44;5020748;28;20048;-68
2022/11/19 10:34:51;;;;;;;32.03;22.42;;;;;;;17.06;70.37;98898.72;5027609;28;20108;-68
2022/11/19 10:37:19;;;;;;;37.72;26.98;;;;;;;17.36;70.26;98894.88;5045357;28;20025;-68
2022/11/19 10:39:57;;;;;;;29.20;18.10;;;;;;;17.38;67.39;98896.09;5049908;28;20024;-72
2022/11/19 10:42:31;;;;;;;28.13;19.60;;;;;;;17.29;67.81;98892.81;5017270;28;20021;-68
2022/11/19 10:45:17;;;;;;;33.95;20.98;;;;;;;17.16;68.88;98898.00;5046658;28;20072;-68
2022/11/19 10:48:01;;;;;;;33.47;19.33;;;;;;;16.95;69.24;98892.97;5041206;28;20179;-68
2022/11/19 10:50:26;;;;;;;25.95;17.05;;;;;;;16.70;69.68;98902.88;5039021;28;20025;-69
2022/11/19 10:52:56;;;;;;;26.70;16.90;;;;;;;16.64;69.95;98904.41;5035732;28;20028;-68
2022/11/19 10:55:50;;;;;;;31.83;19.25;;;;;;;16.39;70.16;98882.44;5047587;28;20399;-70
2022/11/19 10:58:23;;;;;;;40.80;23.80;;;;;;;16.38;73.06;98888.47;5038896;28;20519;-68
2022/11/19 11:00:51;;;;;;;42.33;23.02;;;;;;;16.28;73.53;98881.50;5031081;28;20028;-70
2022/11/19 11:03:53;;;;;;;41.33;26.75;;;;;;;16.32;74.61;98871.09;5047154;28;20056;-69
2022/11/19 11:06:18;;;;;;;42.20;23.27;;;;;;;16.24;73.90;98872.22;5043150;28;20041;-70
2022/11/19 11:08:50;;;;;;;36.35;23.20;;;;;;;16.04;74.21;98880.06;5046125;28;20032;-74
2022/11/19 11:15:18;;;;;;;37.97;23.55;;;;;;;16.06;74.88;98881.31;5020529;28;20044;-69
2022/11/19 11:17:19;;;;;;;70.10;49.47;;;;;;;16.31;73.73;98880.75;5026048;28;20037;-69
2022/11/19 11:20:04;;;;;;;42.65;28.05;;;;;;;16.57;73.56;98873.31;5038047;28;20427;-69
2022/11/19 11:22:31;;;;;;;33.92;24.02;;;;;;;16.78;72.88;98869.84;5041322;28;20024;-69
2022/11/19 11:24:58;;;;;;;35.35;22.13;;;;;;;16.89;69.77;98858.63;5040743;28;20052;-69
2022/11/19 11:27:26;;;;;;;40.13;23.17;;;;;;;17.05;69.84;98863.22;5037365;28;20029;-69
2022/11/19 11:30:10;;;;;;;37.35;22.13;;;;;;;17.16;69.94;98872.56;5030494;28;20491;-69
2022/11/19 11:32:37;;;;;;;42.05;23.75;;;;;;;17.43;68.99;98875.13;5038427;28;20031;-69
2022/11/19 11:35:02;;;;;;;21.40;14.75;;;;;;;17.29;66.04;98867.38;5030817;28;20564;-69
2022/11/19 11:37:28;;;;;;;23.90;14.02;;;;;;;17.33;66.04;98871.03;5017887;28;20124;-69
2022/11/19 11:39:55;;;;;;;24.48;15.25;;;;;;;17.11;67.00;98875.75;5048359;28;20071;-69
2022/11/19 11:42:25;;;;;;;20.52;13.70;;;;;;;17.02;68.80;98875.31;5041360;28;20055;-69
2022/11/19 11:44:59;;;;;;;23.23;14.88;;;;;;;17.12;68.97;98871.72;5038842;28;20021;-69
2022/11/19 11:47:34;;;;;;;23.05;15.02;;;;;;;17.12;69.06;98866.88;5039515;28;20146;-69
2022/11/19 11:50:06;;;;;;;23.40;15.63;;;;;;;17.11;68.38;98875.75;5044427;28;20035;-69
2022/11/19 11:52:35;;;;;;;22.33;15.02;;;;;;;17.09;69.15;98866.84;5037298;28;20036;-69